createdAt,value
2018-12-27T00:01:20.725Z,11.45
2018-12-27T00:04:17.350Z,11.15
2018-12-27T00:07:25.834Z,11.65
2018-12-27T00:10:34.190Z,11.68
2018-12-27T00:13:23.878Z,11.90
2018-12-27T00:16:32.385Z,10.55
2018-12-27T00:19:23.634Z,11.95
2018-12-27T00:22:05.494Z,10.60
2018-12-27T00:24:54.778Z,10.88
2018-12-27T00:28:03.015Z,11.68
2018-12-27T00:33:47.912Z,11.00
2018-12-27T00:36:37.606Z,11.88
2018-12-27T00:39:27.013Z,10.85
2018-12-27T00:42:16.394Z,10.65
2018-12-27T00:48:00.354Z,11.08
2018-12-27T00:50:50.082Z,11.22
2018-12-27T00:53:39.588Z,10.48
2018-12-27T00:56:28.980Z,11.25
2018-12-27T00:59:18.384Z,10.70
2018-12-27T01:02:07.773Z,11.35
2018-12-27T01:04:57.177Z,10.05
2018-12-27T01:07:46.561Z,11.57
2018-12-27T01:10:35.962Z,10.68
2018-12-27T01:13:25.344Z,11.03
2018-12-27T01:19:09.938Z,10.80
2018-12-27T01:21:52.025Z,10.95
2018-12-27T01:24:41.748Z,10.93
2018-12-27T01:27:31.487Z,11.00
2018-12-27T01:30:20.882Z,10.15
2018-12-27T01:33:10.275Z,10.72
2018-12-27T01:35:59.684Z,10.95
2018-12-27T01:38:49.615Z,11.35
2018-12-27T01:41:39.003Z,10.50
2018-12-27T01:47:23.934Z,10.80
2018-12-27T01:50:13.342Z,11.28
2018-12-27T01:53:03.084Z,12.23
2018-12-27T01:55:52.489Z,11.08
2018-12-27T01:58:41.880Z,10.28
2018-12-27T02:01:31.568Z,11.38
2018-12-27T02:04:21.360Z,10.78
2018-12-27T02:07:10.748Z,11.53
2018-12-27T02:10:00.404Z,11.50
2018-12-27T02:12:49.791Z,13.10
2018-12-27T02:15:39.202Z,11.55
2018-12-27T02:18:28.950Z,11.68
2018-12-27T02:21:11.348Z,11.80
2018-12-27T02:24:01.137Z,11.85
2018-12-27T02:26:50.558Z,11.35
2018-12-27T02:29:39.960Z,10.25
2018-12-27T02:32:29.624Z,11.40
2018-12-27T02:35:19.031Z,10.55
2018-12-27T02:38:08.420Z,10.53
2018-12-27T02:40:58.182Z,10.15
2018-12-27T02:43:47.561Z,10.95
2018-12-27T02:46:37.331Z,10.35
2018-12-27T02:49:26.743Z,10.88
2018-12-27T02:52:16.141Z,10.20
2018-12-27T02:55:05.549Z,10.03
2018-12-27T02:57:54.955Z,9.63
2018-12-27T03:00:44.695Z,9.48
2018-12-27T03:03:34.080Z,9.48
2018-12-27T03:06:23.518Z,10.32
2018-12-27T03:09:12.900Z,9.43
2018-12-27T03:12:02.289Z,9.13
2018-12-27T03:14:51.686Z,10.45
2018-12-27T03:17:41.076Z,9.73
2018-12-27T03:20:31.170Z,10.30
2018-12-27T03:23:12.749Z,9.18
2018-12-27T03:26:02.162Z,9.93
2018-12-27T03:28:51.566Z,9.58
2018-12-27T03:31:41.394Z,9.63
2018-12-27T03:34:30.759Z,9.53
2018-12-27T03:40:15.095Z,9.03
2018-12-27T03:43:04.546Z,9.85
2018-12-27T03:45:53.932Z,9.18
2018-12-27T03:48:43.309Z,8.88
2018-12-27T03:51:32.713Z,8.58
2018-12-27T03:54:22.100Z,7.95
2018-12-27T03:57:11.493Z,9.18
2018-12-27T04:00:00.890Z,8.20
2018-12-27T04:02:50.264Z,7.70
2018-12-27T04:05:39.997Z,8.68
2018-12-27T04:08:29.642Z,8.40
2018-12-27T04:11:19.059Z,8.90
2018-12-27T04:14:08.450Z,8.75
2018-12-27T04:16:57.844Z,7.60
2018-12-27T04:19:47.074Z,7.80
2018-12-27T04:22:29.056Z,7.50
2018-12-27T04:28:34.420Z,8.05
2018-12-27T04:37:54.744Z,7.58
2018-12-27T04:40:44.007Z,7.40
2018-12-27T04:47:02.401Z,7.35
2018-12-27T04:49:51.625Z,7.10
2018-12-27T04:52:41.233Z,7.53
2018-12-27T04:55:30.502Z,7.70
2018-12-27T04:58:19.795Z,7.08
2018-12-27T05:01:09.410Z,7.83
2018-12-27T05:03:58.641Z,6.78
2018-12-27T05:06:47.972Z,7.45
2018-12-27T05:09:37.272Z,7.30
2018-12-27T05:15:21.653Z,6.95
2018-12-27T05:18:29.895Z,6.65
2018-12-27T05:21:12.175Z,6.33
2018-12-27T05:24:20.435Z,6.70
2018-12-27T05:27:09.710Z,7.20
2018-12-27T05:29:59.008Z,7.20
2018-12-27T05:32:48.330Z,6.80
2018-12-27T05:35:37.574Z,7.10
2018-12-27T05:38:46.084Z,7.28
2018-12-27T05:41:35.331Z,6.83
2018-12-27T05:44:24.555Z,6.95
2018-12-27T05:47:32.894Z,6.97
2018-12-27T05:50:22.113Z,7.40
2018-12-27T05:53:11.358Z,7.05
2018-12-27T05:56:19.619Z,7.22
2018-12-27T05:59:08.851Z,7.08
2018-12-27T06:02:17.108Z,6.85
2018-12-27T06:05:25.347Z,6.95
2018-12-27T06:08:14.672Z,7.08
2018-12-27T06:11:04.005Z,6.50
2018-12-27T06:13:53.231Z,7.05
2018-12-27T06:16:42.462Z,6.20
2018-12-27T06:19:31.708Z,6.53
2018-12-27T06:22:13.909Z,7.40
2018-12-27T06:25:03.188Z,6.30
2018-12-27T06:30:47.120Z,6.58
2018-12-27T06:33:36.433Z,6.33
2018-12-27T06:36:44.696Z,7.78
2018-12-27T06:39:33.993Z,6.58
2018-12-27T06:42:23.231Z,7.25
2018-12-27T06:45:31.482Z,7.50
2018-12-27T06:48:39.752Z,8.45
2018-12-27T06:51:29.002Z,7.22
2018-12-27T06:54:18.232Z,8.85
2018-12-27T06:57:07.547Z,7.20
2018-12-27T06:59:56.781Z,7.25
2018-12-27T07:03:05.566Z,8.30
2018-12-27T07:05:54.798Z,8.50
2018-12-27T07:08:44.114Z,5.83
2018-12-27T07:11:33.358Z,9.03
2018-12-27T07:14:22.675Z,7.25
2018-12-27T07:17:11.995Z,9.15
2018-12-27T07:20:01.300Z,8.63
2018-12-27T07:22:43.662Z,8.58
2018-12-27T07:25:32.971Z,8.90
2018-12-27T07:28:22.290Z,7.90
2018-12-27T07:31:11.586Z,8.35
2018-12-27T07:34:01.290Z,8.45
2018-12-27T07:36:50.534Z,8.10
2018-12-27T07:39:39.989Z,7.62
2018-12-27T07:42:29.220Z,8.25
2018-12-27T07:45:18.590Z,9.53
2018-12-27T07:48:07.836Z,9.15
2018-12-27T07:50:57.134Z,9.38
2018-12-27T07:53:46.452Z,8.48
2018-12-27T07:56:35.752Z,9.20
2018-12-27T07:59:25.002Z,7.97
2018-12-27T08:02:14.385Z,7.97
2018-12-27T08:08:11.940Z,8.30
2018-12-27T08:11:20.882Z,8.70
2018-12-27T08:14:10.202Z,8.35
2018-12-27T08:17:00.345Z,9.55
2018-12-27T08:19:50.010Z,8.10
2018-12-27T08:22:32.575Z,8.38
2018-12-27T08:25:22.199Z,9.63
2018-12-27T08:28:11.982Z,7.90
2018-12-27T08:31:01.204Z,7.53
2018-12-27T08:33:50.617Z,7.60
2018-12-27T08:36:39.912Z,7.50
2018-12-27T08:39:29.245Z,8.53
2018-12-27T08:42:18.565Z,8.35
2018-12-27T08:45:08.228Z,7.47
2018-12-27T08:47:57.554Z,7.95
2018-12-27T08:50:46.887Z,7.03
2018-12-27T08:56:31.345Z,7.92
2018-12-27T08:59:20.745Z,7.55
2018-12-27T09:02:09.996Z,7.42
2018-12-27T09:04:59.374Z,8.20
2018-12-27T09:07:48.633Z,8.08
2018-12-27T09:10:38.197Z,8.40
2018-12-27T09:13:27.464Z,7.80
2018-12-27T09:16:16.831Z,8.93
2018-12-27T09:19:06.243Z,7.78
2018-12-27T09:21:48.422Z,7.25
2018-12-27T09:24:37.852Z,7.55
2018-12-27T09:27:27.214Z,7.53
2018-12-27T09:30:16.508Z,8.23
2018-12-27T09:33:05.825Z,7.90
2018-12-27T09:35:55.051Z,7.50
2018-12-27T09:38:44.297Z,9.03
2018-12-27T09:41:33.608Z,7.58
2018-12-27T09:44:22.854Z,7.78
2018-12-27T09:47:12.388Z,6.60
2018-12-27T09:50:01.639Z,8.43
2018-12-27T09:52:50.953Z,8.50
2018-12-27T09:55:40.601Z,8.15
2018-12-27T09:58:29.942Z,8.10
2018-12-27T10:01:19.282Z,7.85
2018-12-27T10:04:08.703Z,7.87
2018-12-27T10:06:58.095Z,8.13
2018-12-27T10:09:47.865Z,8.45
2018-12-27T10:12:56.127Z,8.13
2018-12-27T10:15:45.893Z,6.78
2018-12-27T10:18:54.254Z,7.83
2018-12-27T10:21:36.621Z,7.12
2018-12-27T10:24:26.910Z,7.20
2018-12-27T10:27:16.203Z,8.05
2018-12-27T10:30:05.835Z,8.00
2018-12-27T10:32:55.478Z,7.17
2018-12-27T10:36:03.762Z,7.87
2018-12-27T10:38:54.593Z,7.20
2018-12-27T10:41:43.819Z,8.68
2018-12-27T10:44:33.113Z,7.45
2018-12-27T10:47:41.354Z,7.37
2018-12-27T10:50:30.664Z,6.55
2018-12-27T10:53:20.619Z,6.00
2018-12-27T10:56:29.362Z,6.47
2018-12-27T10:59:19.112Z,7.30
2018-12-27T11:02:09.094Z,6.17
2018-12-27T11:04:58.508Z,5.22
2018-12-27T11:07:47.825Z,6.03
2018-12-27T11:10:37.094Z,5.12
2018-12-27T11:13:26.425Z,6.22
2018-12-27T11:16:15.733Z,5.15
2018-12-27T11:19:05.417Z,6.05
2018-12-27T11:21:47.420Z,5.15
2018-12-27T11:24:36.950Z,5.40
2018-12-27T11:27:26.384Z,4.75
2018-12-27T11:30:15.835Z,5.87
2018-12-27T11:33:05.223Z,6.62
2018-12-27T11:35:55.953Z,5.83
2018-12-27T11:38:46.296Z,5.05
2018-12-27T11:41:35.999Z,5.70
2018-12-27T11:44:25.348Z,5.03
2018-12-27T11:47:14.634Z,5.20
2018-12-27T11:50:04.491Z,5.05
2018-12-27T11:53:12.663Z,5.30
2018-12-27T11:56:02.107Z,3.05
2018-12-27T11:58:51.754Z,4.87
2018-12-27T12:01:41.070Z,4.15
2018-12-27T12:04:30.396Z,4.58
2018-12-27T12:07:19.637Z,4.15
2018-12-27T12:10:09.162Z,3.83
2018-12-27T12:12:58.483Z,3.95
2018-12-27T12:15:47.813Z,3.60
2018-12-27T12:18:37.118Z,3.75
2018-12-27T12:21:26.558Z,4.25
2018-12-27T12:24:15.807Z,4.10
2018-12-27T12:27:24.325Z,3.98
2018-12-27T12:30:13.785Z,4.50
2018-12-27T12:33:03.099Z,3.77
2018-12-27T12:35:52.515Z,4.05
2018-12-27T12:38:41.946Z,3.25
2018-12-27T12:41:31.277Z,3.47
2018-12-27T12:44:20.816Z,3.62
2018-12-27T12:47:10.404Z,3.65
2018-12-27T12:50:00.521Z,3.30
2018-12-27T12:52:49.909Z,3.12
2018-12-27T12:55:39.231Z,3.52
2018-12-27T12:58:29.211Z,3.58
2018-12-27T13:01:18.996Z,4.10
2018-12-27T13:04:27.344Z,3.67
2018-12-27T13:07:35.850Z,3.67
2018-12-27T13:10:25.461Z,3.80
2018-12-27T13:13:33.716Z,3.50
2018-12-27T13:16:23.152Z,2.87
2018-12-27T13:19:31.424Z,3.47
2018-12-27T13:22:13.233Z,3.42
2018-12-27T13:25:02.576Z,3.40
2018-12-27T13:27:51.993Z,3.37
2018-12-27T13:31:00.336Z,2.92
2018-12-27T13:33:49.868Z,2.85
2018-12-27T13:36:58.145Z,3.05
2018-12-27T13:40:06.492Z,2.85
2018-12-27T13:42:55.722Z,3.50
2018-12-27T13:45:44.984Z,3.20
2018-12-27T13:48:34.359Z,2.60
2018-12-27T13:51:42.714Z,2.70
2018-12-27T13:54:50.991Z,3.05
2018-12-27T13:57:40.271Z,2.90
2018-12-27T14:00:29.592Z,2.70
2018-12-27T14:03:19.132Z,2.98
2018-12-27T14:06:32.729Z,2.58
2018-12-27T14:09:39.766Z,2.98
2018-12-27T14:12:28.984Z,3.10
2018-12-27T14:15:18.620Z,2.62
2018-12-27T14:18:26.958Z,2.75
2018-12-27T14:21:37.911Z,2.70
2018-12-27T14:24:27.298Z,2.90
2018-12-27T14:27:35.565Z,2.72
2018-12-27T14:33:40.725Z,3.10
2018-12-27T14:36:32.440Z,3.15
2018-12-27T14:39:24.831Z,3.70
2018-12-27T14:45:29.954Z,3.30
2018-12-27T14:48:38.294Z,3.02
2018-12-27T14:51:46.678Z,3.15
2018-12-27T14:54:54.941Z,3.08
2018-12-27T14:57:44.155Z,3.20
2018-12-27T15:00:33.392Z,3.17
2018-12-27T15:03:44.714Z,3.10
2018-12-27T15:06:53.332Z,3.08
2018-12-27T15:10:02.415Z,3.15
2018-12-27T15:12:51.693Z,3.47
2018-12-27T15:15:41.047Z,3.75
2018-12-27T15:18:30.435Z,4.00
2018-12-27T15:21:20.075Z,3.35
2018-12-27T15:24:02.688Z,3.70
2018-12-27T15:26:51.924Z,3.83
2018-12-27T15:30:00.282Z,3.92
2018-12-27T15:32:49.580Z,3.72
2018-12-27T15:35:38.977Z,3.47
2018-12-27T15:38:47.566Z,3.35
2018-12-27T15:41:55.832Z,3.70
2018-12-27T15:44:45.597Z,2.83
2018-12-27T15:47:54.258Z,3.67
2018-12-27T15:51:02.534Z,3.52
2018-12-27T15:54:10.863Z,5.25
2018-12-27T15:57:00.194Z,4.12
2018-12-27T16:00:08.544Z,4.62
2018-12-27T16:03:16.829Z,3.52
2018-12-27T16:06:25.156Z,3.90
2018-12-27T16:09:14.407Z,3.90
2018-12-27T16:12:22.686Z,3.83
2018-12-27T16:15:11.996Z,5.00
2018-12-27T16:18:20.347Z,5.12
2018-12-27T16:21:10.035Z,5.55
2018-12-27T16:23:52.298Z,4.45
2018-12-27T16:27:00.640Z,4.37
2018-12-27T16:29:49.853Z,4.35
2018-12-27T16:32:58.123Z,4.70
2018-12-27T16:36:06.469Z,5.00
2018-12-27T16:38:56.048Z,4.72
2018-12-27T16:42:04.685Z,5.42
2018-12-27T16:44:53.938Z,6.45
2018-12-27T16:48:02.296Z,5.85
2018-12-27T16:51:10.560Z,6.55
2018-12-27T16:53:59.859Z,5.90
2018-12-27T16:56:49.102Z,6.17
2018-12-27T16:59:38.956Z,8.18
2018-12-27T17:02:28.358Z,6.62
2018-12-27T17:05:17.589Z,7.08
2018-12-27T17:08:06.912Z,7.53
2018-12-27T17:10:56.143Z,6.55
2018-12-27T17:13:45.447Z,6.55
2018-12-27T17:16:34.945Z,7.10
2018-12-27T17:19:24.177Z,7.53
2018-12-27T17:22:06.879Z,7.08
2018-12-27T17:24:56.484Z,7.62
2018-12-27T17:27:45.724Z,7.78
2018-12-27T17:30:35.014Z,7.83
2018-12-27T17:33:24.372Z,7.97
2018-12-27T17:36:32.705Z,6.78
2018-12-27T17:39:40.982Z,7.95
2018-12-27T17:42:49.586Z,7.60
2018-12-27T17:45:38.972Z,9.00
2018-12-27T17:48:28.236Z,8.10
2018-12-27T17:51:17.568Z,8.20
2018-12-27T17:54:06.892Z,8.75
2018-12-27T17:56:59.282Z,9.60
2018-12-27T17:59:48.933Z,9.05
2018-12-27T18:02:38.537Z,7.92
2018-12-27T18:05:47.120Z,8.80
2018-12-27T18:08:36.753Z,8.43
2018-12-27T18:11:45.357Z,8.43
2018-12-27T18:14:54.357Z,9.15
2018-12-27T18:17:43.571Z,8.20
2018-12-27T18:20:51.755Z,8.30
2018-12-27T18:23:34.849Z,8.13
2018-12-27T18:26:24.180Z,8.08
2018-12-27T18:29:36.301Z,7.85
2018-12-27T18:32:25.650Z,9.35
2018-12-27T18:35:15.129Z,9.60
2018-12-27T18:38:23.410Z,8.80
2018-12-27T18:41:12.777Z,7.60
2018-12-27T18:44:02.104Z,8.43
2018-12-27T18:46:51.428Z,9.20
2018-12-27T18:49:40.749Z,8.68
2018-12-27T18:52:30.372Z,8.25
2018-12-27T18:55:20.145Z,9.30
2018-12-27T18:58:10.815Z,9.18
2018-12-27T19:01:00.268Z,8.58
2018-12-27T19:04:08.558Z,8.88
2018-12-27T19:06:57.959Z,9.20
2018-12-27T19:09:28.106Z,8.38
2018-12-27T19:12:52.586Z,9.53
2018-12-27T19:15:26.996Z,9.73
2018-12-27T19:18:26.870Z,9.13
2018-12-27T19:21:09.572Z,9.78
2018-12-27T19:23:39.710Z,10.08
2018-12-27T19:26:09.885Z,10.13
2018-12-27T19:28:40.441Z,10.23
2018-12-27T19:31:10.748Z,9.90
2018-12-27T19:33:41.017Z,9.30
2018-12-27T19:36:11.901Z,8.58
2018-12-27T19:38:42.446Z,8.90
2018-12-27T19:41:17.724Z,8.45
2018-12-27T19:43:48.093Z,9.58
2018-12-27T19:46:18.299Z,9.08
2018-12-27T19:48:48.444Z,9.78
2018-12-27T19:51:18.670Z,10.28
2018-12-27T19:53:51.035Z,11.90
2018-12-27T19:56:21.325Z,12.13
2018-12-27T19:58:51.529Z,9.55
2018-12-27T20:01:21.640Z,9.60
2018-12-27T20:03:51.842Z,9.80
2018-12-27T20:06:22.344Z,9.63
2018-12-27T20:08:52.771Z,9.65
2018-12-27T20:11:24.165Z,10.30
2018-12-27T20:13:54.382Z,10.35
2018-12-27T20:16:24.542Z,9.98
2018-12-27T20:18:54.583Z,9.03
2018-12-27T20:21:24.825Z,9.58
2018-12-27T20:23:54.980Z,10.28
2018-12-27T20:26:25.199Z,10.98
2018-12-27T20:28:55.561Z,10.78
2018-12-27T20:31:26.103Z,11.25
2018-12-27T20:33:56.219Z,10.10
2018-12-27T20:36:26.418Z,9.63
2018-12-27T20:38:56.570Z,12.28
2018-12-27T20:41:26.766Z,9.85
2018-12-27T20:43:56.990Z,9.00
2018-12-27T20:46:27.483Z,9.90
2018-12-27T20:48:57.553Z,9.93
2018-12-27T20:51:27.727Z,9.83
2018-12-27T20:53:58.181Z,11.33
2018-12-27T20:56:28.300Z,12.53
2018-12-27T20:58:58.514Z,11.83
2018-12-27T21:01:28.715Z,10.53
2018-12-27T21:03:58.981Z,10.20
2018-12-27T21:06:29.088Z,10.65
2018-12-27T21:08:59.510Z,12.45
2018-12-27T21:11:30.041Z,10.88
2018-12-27T21:14:00.481Z,10.95
2018-12-27T21:16:30.706Z,9.08
2018-12-27T21:19:00.835Z,9.50
2018-12-27T21:21:31.046Z,9.50
2018-12-27T21:24:01.558Z,9.30
2018-12-27T21:26:31.726Z,8.30
2018-12-27T21:29:01.815Z,9.85
2018-12-27T21:31:31.935Z,9.95
2018-12-27T21:34:02.434Z,10.50
2018-12-27T21:36:32.564Z,10.40
2018-12-27T21:39:03.189Z,9.25
2018-12-27T21:41:33.569Z,9.05
2018-12-27T21:44:03.713Z,10.13
2018-12-27T21:46:33.859Z,8.68
2018-12-27T21:49:03.999Z,8.93
2018-12-27T21:51:34.389Z,9.33
2018-12-27T21:54:04.619Z,8.93
2018-12-27T21:56:34.737Z,9.15
2018-12-27T21:59:05.311Z,9.60
2018-12-27T22:01:35.687Z,9.95
2018-12-27T22:04:06.005Z,9.25
2018-12-27T22:06:37.810Z,9.45
2018-12-27T22:09:09.240Z,9.40
2018-12-27T22:11:39.445Z,9.85
2018-12-27T22:14:09.566Z,9.55
2018-12-27T22:16:40.089Z,9.13
2018-12-27T22:19:10.287Z,9.60
2018-12-27T22:21:40.833Z,9.33
2018-12-27T22:24:24.122Z,9.13
2018-12-27T22:26:54.595Z,9.95
2018-12-27T22:29:25.434Z,9.95
2018-12-27T22:31:55.712Z,9.90
2018-12-27T22:34:27.314Z,10.03
2018-12-27T22:36:57.760Z,9.30
2018-12-27T22:39:28.223Z,9.33
2018-12-27T22:41:58.535Z,9.45
2018-12-27T22:44:28.892Z,9.90
2018-12-27T22:46:59.058Z,10.08
2018-12-27T22:49:29.192Z,9.53
2018-12-27T22:52:01.562Z,9.65
2018-12-27T22:54:31.782Z,9.88
2018-12-27T22:57:05.231Z,9.18
2018-12-27T22:59:35.885Z,9.55
2018-12-27T23:02:06.493Z,9.90
2018-12-27T23:04:37.023Z,9.35
2018-12-27T23:07:07.190Z,9.78
2018-12-27T23:09:37.405Z,9.05
2018-12-27T23:12:07.705Z,10.30
2018-12-27T23:14:37.873Z,8.60
2018-12-27T23:17:08.575Z,9.20
2018-12-27T23:19:38.677Z,9.15
2018-12-27T23:22:08.848Z,10.05
2018-12-27T23:24:39.036Z,8.50
2018-12-27T23:27:09.973Z,8.78
2018-12-27T23:29:40.109Z,8.33
2018-12-27T23:32:10.500Z,8.60
2018-12-27T23:34:40.626Z,7.97
2018-12-27T23:37:10.773Z,7.40
2018-12-27T23:39:40.894Z,8.88
2018-12-27T23:42:10.955Z,8.10
2018-12-27T23:44:41.699Z,8.58
2018-12-27T23:47:12.147Z,8.90
2018-12-27T23:49:43.622Z,9.23
2018-12-27T23:52:13.754Z,8.55
2018-12-27T23:54:43.810Z,8.48
2018-12-27T23:57:14.071Z,9.10
2018-12-27T23:59:44.271Z,8.65
